地図

経路データ

SID SEASON NUMBER BASIN SUBBASIN NAME ISO_TIME NATURE LAT LON WMO_WIND WMO_PRES WMO_AGENCY TRACK_TYPE DIST2LAND LANDFALL IFLAG USA_AGENCY USA_ATCF_ID USA_LAT USA_LON USA_RECORD USA_STATUS USA_WIND USA_PRES USA_SSHS USA_R34_NE USA_R34_SE USA_R34_SW USA_R34_NW USA_R50_NE USA_R50_SE USA_R50_SW USA_R50_NW USA_R64_NE USA_R64_SE USA_R64_SW USA_R64_NW USA_POCI USA_ROCI USA_RMW USA_EYE TOKYO_LAT TOKYO_LON TOKYO_GRADE TOKYO_WIND TOKYO_PRES TOKYO_R50_DIR TOKYO_R50_LONG TOKYO_R50_SHORT TOKYO_R30_DIR TOKYO_R30_LONG TOKYO_R30_SHORT TOKYO_LAND CMA_LAT CMA_LON CMA_CAT CMA_WIND CMA_PRES HKO_LAT HKO_LON HKO_CAT HKO_WIND HKO_PRES NEWDELHI_LAT NEWDELHI_LON NEWDELHI_GRADE NEWDELHI_WIND NEWDELHI_PRES NEWDELHI_CI NEWDELHI_DP NEWDELHI_POCI REUNION_LAT REUNION_LON REUNION_TYPE REUNION_WIND REUNION_PRES REUNION_TNUM REUNION_CI REUNION_RMW REUNION_R34_NE REUNION_R34_SE REUNION_R34_SW REUNION_R34_NW REUNION_R50_NE REUNION_R50_SE REUNION_R50_SW REUNION_R50_NW REUNION_R64_NE REUNION_R64_SE REUNION_R64_SW REUNION_R64_NW BOM_LAT BOM_LON BOM_TYPE BOM_WIND BOM_PRES BOM_TNUM BOM_CI BOM_RMW BOM_R34_NE BOM_R34_SE BOM_R34_SW BOM_R34_NW BOM_R50_NE BOM_R50_SE BOM_R50_SW BOM_R50_NW BOM_R64_NE BOM_R64_SE BOM_R64_SW BOM_R64_NW BOM_ROCI BOM_POCI BOM_EYE BOM_POS_METHOD BOM_PRES_METHOD NADI_LAT NADI_LON NADI_CAT NADI_WIND NADI_PRES WELLINGTON_LAT WELLINGTON_LON WELLINGTON_WIND WELLINGTON_PRES DS824_LAT DS824_LON DS824_STAGE DS824_WIND DS824_PRES TD9636_LAT TD9636_LON TD9636_STAGE TD9636_WIND TD9636_PRES TD9635_LAT TD9635_LON TD9635_WIND TD9635_PRES TD9635_ROCI NEUMANN_LAT NEUMANN_LON NEUMANN_CLASS NEUMANN_WIND NEUMANN_PRES MLC_LAT MLC_LON MLC_CLASS MLC_WIND MLC_PRES USA_GUST BOM_GUST BOM_GUST_PER REUNION_GUST REUNION_GUST_PER USA_SEAHGT USA_SEARAD_NE USA_SEARAD_SE USA_SEARAD_SW USA_SEARAD_NW STORM_SPEED STORM_DIR
1943278N13084 1943 71 NI BB NOT_NAMED 1943-10-05 00:00:00 TS 13.2000 84.3000 main 433 411 _________O____ -1 13.2000 84.3000 TC 30 4 261
1943278N13084 1943 71 NI BB NOT_NAMED 1943-10-05 03:00:00 TS 13.1667 84.0750 main 411 368 _________PO___ -1 13.1500 83.9625 TC 30 13.2000 84.3000 1 6 262
1943278N13084 1943 71 NI BB NOT_NAMED 1943-10-05 06:00:00 TS 13.1183 83.7268 main 368 336 _________OP___ -1 13.1000 83.6000 TC 30 13.1457 83.9170 1 7 262
1943278N13084 1943 71 NI BB NOT_NAMED 1943-10-05 09:00:00 TS 13.0684 83.3446 main 325 294 _________PP___ -1 13.0500 83.2000 TC 30 13.0929 83.5373 1 7 262
1943278N13084 1943 71 NI BB NOT_NAMED 1943-10-05 12:00:00 TS 13.0218 82.9820 main 294 251 _________OP___ -1 13.0000 82.8000 TC 30 13.0436 83.1640 1 7 262
1943278N13084 1943 71 NI BB NOT_NAMED 1943-10-05 15:00:00 TS 12.9712 82.6100 main 251 221 _________PO___ -1 12.9425 82.4200 TC 30 13.0000 82.8000 1 7 263
1943278N13084 1943 71 NI BB NOT_NAMED 1943-10-05 18:00:00 TS 12.9319 82.2758 main 221 189 _________OP___ -1 12.9000 82.1000 TC 30 12.9637 82.4516 1 6 265
1943278N13084 1943 71 NI BB NOT_NAMED 1943-10-05 21:00:00 TS 12.9137 81.9926 main 189 168 _________PP___ -1 12.8925 81.8475 TC 30 12.9350 82.1376 1 5 267
1943278N13084 1943 71 NI BB NOT_NAMED 1943-10-06 00:00:00 TS 12.9069 81.7899 main 168 158 _________OP___ -1 12.9000 81.7000 TC 30 12.9138 81.8797 1 3 267
1943278N13084 1943 71 NI BB NOT_NAMED 1943-10-06 03:00:00 TS 12.9000 81.6850 main 158 158 _________PO___ -1 12.9000 81.6700 TC 30 12.9000 81.7000 1 1 265
1943278N13084 1943 71 NI BB NOT_NAMED 1943-10-06 06:00:00 TS 12.8963 81.6605 main 158 158 _________OP___ -1 12.9000 81.7000 TC 30 12.8926 81.6210 1 0 0
1943278N13084 1943 71 NI BB NOT_NAMED 1943-10-06 09:00:00 TS 12.8962 81.6588 main 158 158 _________PP___ -1 12.9000 81.7000 TC 30 12.8923 81.6175 1 0 0
1943278N13084 1943 71 NI BB NOT_NAMED 1943-10-06 12:00:00 TS 12.8979 81.6777 main 158 158 _________OP___ -1 12.9000 81.7000 TC 30 12.8958 81.6553 1 0 84
1943278N13084 1943 71 NI BB NOT_NAMED 1943-10-06 15:00:00 TS 12.9000 81.7000 main 158 158 _________PO___ -1 12.9000 81.7000 TC 30 12.9000 81.7000 1 0 0
1943278N13084 1943 71 NI BB NOT_NAMED 1943-10-06 18:00:00 TS 12.9000 81.7000 main 158 158 _________OP___ -1 12.9000 81.7000 TC 30 12.9000 81.7000 1 0 0
1943278N13084 1943 71 NI BB NOT_NAMED 1943-10-06 21:00:00 TS 12.9000 81.7000 main 158 158 _________PP___ -1 12.9000 81.7000 TC 30 12.9000 81.7000 1 0 0
1943278N13084 1943 71 NI BB NOT_NAMED 1943-10-07 00:00:00 TS 12.9000 81.7000 main 158 158 _________OP___ -1 12.9000 81.7000 TC 30 12.9000 81.7000 1 0 0
1943278N13084 1943 71 NI BB NOT_NAMED 1943-10-07 03:00:00 TS 12.9000 81.7000 main 158 158 _________PO___ -1 12.9000 81.7000 TC 30 12.9000 81.7000 1 0 0
1943278N13084 1943 71 NI BB NOT_NAMED 1943-10-07 06:00:00 TS 12.9000 81.7000 main 158 158 _________OP___ -1 12.9000 81.7000 TC 30 12.9000 81.7000 1 0 0
1943278N13084 1943 71 NI BB NOT_NAMED 1943-10-07 09:00:00 TS 12.9000 81.7000 main 158 158 _________PP___ -1 12.9000 81.7000 TC 30 12.9000 81.7000 1 0 0
1943278N13084 1943 71 NI BB NOT_NAMED 1943-10-07 12:00:00 TS 12.9000 81.7000 main 158 158 _________OP___ -1 12.9000 81.7000 TC 30 12.9000 81.7000 1 0 0
1943278N13084 1943 71 NI BB NOT_NAMED 1943-10-07 15:00:00 TS 12.9000 81.7000 main 158 158 _________PO___ -1 12.9000 81.7000 TC 30 12.9000 81.7000 1 0 0
1943278N13084 1943 71 NI BB NOT_NAMED 1943-10-07 18:00:00 TS 12.9000 81.7000 main 158 158 _________OP___ -1 12.9000 81.7000 TC 30 12.9000 81.7000 1 0 0
1943278N13084 1943 71 NI BB NOT_NAMED 1943-10-07 21:00:00 TS 12.9000 81.7000 main 158 158 _________PP___ -1 12.9000 81.7000 TC 30 12.9000 81.7000 1 0 0
1943278N13084 1943 71 NI BB NOT_NAMED 1943-10-08 00:00:00 TS 12.9000 81.7000 main 158 158 _________OP___ -1 12.9000 81.7000 TC 30 12.9000 81.7000 1 0 0
1943278N13084 1943 71 NI BB NOT_NAMED 1943-10-08 03:00:00 TS 12.9000 81.7000 main 158 158 _________PO___ -1 12.9000 81.7000 TC 30 12.9000 81.7000 1 0 0
1943278N13084 1943 71 NI BB NOT_NAMED 1943-10-08 06:00:00 TS 12.8980 81.7101 main 158 158 _________OP___ -1 12.9000 81.7000 TC 30 12.8959 81.7203 1 0 0
1943278N13084 1943 71 NI BB NOT_NAMED 1943-10-08 09:00:00 TS 12.8962 81.7262 main 158 158 _________PP___ -1 12.9000 81.7150 TC 30 12.8925 81.7375 1 0 0
1943278N13084 1943 71 NI BB NOT_NAMED 1943-10-08 12:00:00 TS 12.8964 81.7180 main 158 158 _________OP___ -1 12.9000 81.7000 TC 30 12.8928 81.7359 1 1 270
1943278N13084 1943 71 NI BB NOT_NAMED 1943-10-08 15:00:00 TS 12.8962 81.6612 main 158 147 _________PO___ -1 12.8925 81.6225 TC 33 12.9000 81.7000 1 1 273
1943278N13084 1943 71 NI BB NOT_NAMED 1943-10-08 18:00:00 TS 12.9048 81.5697 main 147 137 _________OP___ -1 12.9000 81.5000 TC 37 12.9096 81.6393 1 2 281
1943278N13084 1943 71 NI BB NOT_NAMED 1943-10-08 21:00:00 TS 12.9349 81.4599 main 137 113 _________PP___ -1 12.9424 81.3800 TC 41 12.9273 81.5399 1 3 286
1943278N13084 1943 71 NI BB NOT_NAMED 1943-10-09 00:00:00 TS 12.9782 81.2978 main 113 92 _________OP___ -1 13.0000 81.2000 TC 45 12.9564 81.3955 1 4 283
1943278N13084 1943 71 NI BB NOT_NAMED 1943-10-09 03:00:00 TS 13.0213 81.0612 main 92 58 _________PO___ -1 13.0425 80.9225 TC 41 13.0000 81.2000 3 5 280
1943278N13084 1943 71 NI BB NOT_NAMED 1943-10-09 06:00:00 TS 13.0723 80.7711 main 58 31 _________OP___ -1 13.1000 80.6000 TC 37 13.0446 80.9421 3 6 282
1943278N13084 1943 71 NI BB NOT_NAMED 1943-10-09 09:00:00 TS 13.1451 80.4649 main 31 0 _________PP___ -1 13.1850 80.2925 TC 33 13.1053 80.6374 3 6 286
1943278N13084 1943 71 NI BB NOT_NAMED 1943-10-09 12:00:00 TS 13.2441 80.1570 main 0 0 _________OP___ -1 13.3000 80.0000 TC 30 13.1883 80.3140 3 6 291
1943278N13084 1943 71 NI BB NOT_NAMED 1943-10-09 15:00:00 TS 13.3675 79.8712 main 0 0 _________PO___ -1 13.4350 79.7425 TC 30 13.3000 80.0000 1 6 300
1943278N13084 1943 71 NI BB NOT_NAMED 1943-10-09 18:00:00 TS 13.5288 79.6482 main 0 0 _________OP___ -1 13.6000 79.5000 TC 30 13.4577 79.7964 1 5 311
1943278N13084 1943 71 NI BB NOT_NAMED 1943-10-09 21:00:00 TS 13.7205 79.4498 main 0 0 _________PP___ -1 13.7997 79.3024 TC 30 13.6413 79.5972 1 6 310
1943278N13084 1943 71 NI BB NOT_NAMED 1943-10-10 00:00:00 TS 13.9146 79.1747 main 0 0 _________OP___ -1 14.0000 79.0000 TC 30 13.8293 79.3494 1 8 298
1943278N13084 1943 71 NI BB NOT_NAMED 1943-10-10 03:00:00 TS 14.0863 78.7300 main 0 0 _________PO___ -1 14.1726 78.4601 TC 30 14.0000 79.0000 1 10 287
1943278N13084 1943 71 NI BB NOT_NAMED 1943-10-10 06:00:00 TS 14.2209 78.1577 main 0 0 _________OP___ -1 14.3000 77.8000 TC 30 14.1418 78.5154 1 12 282
1943278N13084 1943 71 NI AS NOT_NAMED 1943-10-10 09:00:00 TS 14.3196 77.5551 main 0 0 _________PP___ -1 14.3796 77.1875 TC 30 14.2597 77.9227 1 13 277
1943278N13084 1943 71 NI AS NOT_NAMED 1943-10-10 12:00:00 TS 14.3738 76.8718 main 0 0 _________OP___ -1 14.4000 76.5000 TC 30 14.3477 77.2436 1 14 272
1943278N13084 1943 71 NI AS NOT_NAMED 1943-10-10 15:00:00 TS 14.3788 76.0861 main 0 0 _________PO___ -1 14.3576 75.6723 TC 30 14.4000 76.5000 1 16 269
1943278N13084 1943 71 NI AS NOT_NAMED 1943-10-10 18:00:00 TS 14.3379 75.2312 main 0 0 _________OP___ -1 14.3000 74.8000 TC 30 14.3758 75.6624 1 17 267
1943278N13084 1943 71 NI AS NOT_NAMED 1943-10-10 21:00:00 TS 14.2962 74.3567 main 0 0 _________PP___ -1 14.2701 73.9325 TC 30 14.3222 74.7809 1 16 268
1943278N13084 1943 71 NI AS NOT_NAMED 1943-10-11 00:00:00 TS 14.2911 73.5671 main 77 77 _________OP___ -1 14.3000 73.2000 TC 30 14.2822 73.9342 1 13 273
1943278N13084 1943 71 NI AS NOT_NAMED 1943-10-11 03:00:00 TS 14.3560 72.9700 main 124 124 _________PO___ -1 14.4120 72.7400 TC 30 14.3000 73.2000 1 10 282
1943278N13084 1943 71 NI AS NOT_NAMED 1943-10-11 06:00:00 TS 14.5088 72.5330 main 164 164 _________OP___ -1 14.6000 72.4000 TC 30 14.4175 72.6660 1 9 294
1943278N13084 1943 71 NI AS NOT_NAMED 1943-10-11 09:00:00 TS 14.7141 72.1214 main 198 193 _________PP___ -1 14.8275 71.9925 TC 30 14.6006 72.2504 1 9 301
1943278N13084 1943 71 NI AS NOT_NAMED 1943-10-11 12:00:00 TS 14.9668 71.7547 main 214 214 _________OP___ -1 15.1000 71.6000 TC 30 14.8336 71.9095 1 9 308
1943278N13084 1943 71 NI AS NOT_NAMED 1943-10-11 15:00:00 TS 15.2462 71.4175 main 246 242 _________PO___ -1 15.3924 71.2349 TC 30 15.1000 71.6000 1 9 311
1943278N13084 1943 71 NI AS NOT_NAMED 1943-10-11 18:00:00 TS 15.5315 71.0726 main 260 260 _________OP___ -1 15.7000 70.9000 TC 30 15.3629 71.2452 1 9 312
1943278N13084 1943 71 NI AS NOT_NAMED 1943-10-11 21:00:00 TS 15.8236 70.7523 main 278 278 _________PP___ -1 15.9924 70.5923 TC 30 15.6547 70.9123 1 9 315
1943278N13084 1943 71 NI AS NOT_NAMED 1943-10-12 00:00:00 TS 16.1346 70.4491 main 312 311 _________OP___ -1 16.3000 70.3000 TC 30 15.9692 70.5982 1 9 318
1943278N13084 1943 71 NI AS NOT_NAMED 1943-10-12 03:00:00 TS 16.4712 70.1462 main 341 337 _________PO___ -1 16.6425 69.9925 TC 30 16.3000 70.3000 1 9 320
1943278N13084 1943 71 NI AS NOT_NAMED 1943-10-12 06:00:00 TS 16.8198 69.8532 main 351 351 _________OP___ -1 17.0000 69.7000 TC 30 16.6395 70.0064 1 9 323
1943278N13084 1943 71 NI AS NOT_NAMED 1943-10-12 09:00:00 TS 17.1749 69.5848 main 367 367 _________PP___ -1 17.3574 69.4424 TC 30 16.9923 69.7272 1 9 325
1943278N13084 1943 71 NI AS NOT_NAMED 1943-10-12 12:00:00 TS 17.5245 69.3297 main 389 370 _________OP___ -1 17.7000 69.2000 TC 30 17.3489 69.4595 1 8 324
1943278N13084 1943 71 NI AS NOT_NAMED 1943-10-12 15:00:00 TS 17.8500 69.0749 main 370 352 _________PO___ -1 18.0000 68.9499 TC 30 17.7000 69.2000 1 8 323
1943278N13084 1943 71 NI AS NOT_NAMED 1943-10-12 18:00:00 TS 18.1504 68.8406 main 349 334 _________OP___ -1 18.3000 68.7000 TC 30 18.0383 68.9460 1 8 324
1943278N13084 1943 71 NI AS NOT_NAMED 1943-10-12 21:00:00 TS 18.4742 68.5975 main 334 318 _________PP___ -1 18.6376 68.4502 TC 30 18.3653 68.6956 1 8 325
1943278N13084 1943 71 NI AS NOT_NAMED 1943-10-13 00:00:00 TS 18.7898 68.3650 main 318 314 _________OP___ -1 19.0000 68.2000 TC 30 18.6846 68.4475 1 6 324
1943278N13084 1943 71 NI AS NOT_NAMED 1943-10-13 03:00:00 NR 19.0000 68.2000 main 314 __________O___ -1 TC 19.0000 68.2000 1 5 323

IBTrACS Databaseについて

本データベースは、米国NOAAが公開する1842年以降の世界の熱帯低気圧のベストトラックデータアーカイブInternational Best Track Archive for Climate Stewardship (IBTrACS)を、ウェブで閲覧しやすい形式に変換したものです。

最終更新日:2021-10-08